Time;durP1;ratioP1;P1;durP2;ratioP2;P2;SDS_P1;SDS_P2;PMS_P1;PMS_P2;Temp;Humidity;BMP_temperature;BMP_pressure;BME280_temperature;BME280_humidity;BME280_pressure;Samples;Min_cycle;Max_cycle;Signal;HPM_P1;HPM_P2
2022/08/09 00:00:46;;;;;;;;;;;25.60;56.00;;;;;;5148723;28;19940;-96
2022/08/09 00:03:12;;;;;;;;;;;25.60;56.30;;;;;;5129554;28;20003;-96
2022/08/09 00:05:38;;;;;;;;;;;25.50;56.40;;;;;;5147768;28;19947;-96
2022/08/09 00:08:06;;;;;;;;;;;25.50;56.70;;;;;;5147569;28;19983;-96
2022/08/09 00:10:32;;;;;;;;;;;25.30;56.70;;;;;;5147352;28;20037;-96
2022/08/09 00:12:58;;;;;;;;;;;25.30;57.10;;;;;;5129166;28;19982;-96
2022/08/09 00:15:23;;;;;;;;;;;25.20;57.40;;;;;;5129430;28;20348;-96
2022/08/09 00:17:49;;;;;;;;;;;25.20;57.70;;;;;;5147350;28;19944;-96
2022/08/09 00:20:15;;;;;;;;;;;25.10;58.00;;;;;;5146852;28;19943;-96
2022/08/09 00:22:41;;;;;;;;;;;25.00;58.20;;;;;;5128401;28;19940;-96
2022/08/09 00:25:44;;;;;;;;;;;25.00;58.30;;;;;;5122082;27;19954;-96
2022/08/09 00:28:11;;;;;;;;;;;24.90;58.50;;;;;;5138545;27;19977;-96
2022/08/09 00:30:36;;;;;;;;;;;24.80;58.90;;;;;;5121412;28;19941;-96
2022/08/09 00:33:02;;;;;;;;;;;24.80;58.80;;;;;;5121076;28;20335;-96
2022/08/09 00:43:14;;;;;;;;;;;24.80;58.90;;;;;;5107815;27;2083822;-96
2022/08/09 00:48:45;;;;;;;;;;;25.00;56.60;;;;;;5162108;27;19958;-96
2022/08/09 00:51:12;;;;;;;;;;;25.00;56.70;;;;;;5164400;27;20427;-96
2022/08/09 00:53:38;;;;;;;;;;;25.00;56.70;;;;;;5162072;27;19944;-96
2022/08/09 00:56:04;;;;;;;;;;;24.90;57.00;;;;;;5161338;27;19996;-96
2022/08/09 00:58:30;;;;;;;;;;;24.90;57.20;;;;;;5160394;27;20004;-96
2022/08/09 01:00:56;;;;;;;;;;;24.80;57.20;;;;;;5162088;27;19991;-96
2022/08/09 01:03:34;;;;;;;;;;;24.80;57.70;;;;;;5161281;27;20288;-96
2022/08/09 01:06:08;;;;;;;;;;;24.80;57.90;;;;;;5161412;27;19934;-96
2022/08/09 01:08:42;;;;;;;;;;;24.80;57.90;;;;;;5162398;27;19962;-96
2022/08/09 01:11:17;;;;;;;;;;;24.70;57.80;;;;;;5162428;27;20395;-96
2022/08/09 01:13:50;;;;;;;;;;;24.70;58.00;;;;;;5160888;27;19949;-96
2022/08/09 01:16:19;;;;;;;;;;;24.70;57.80;;;;;;5159879;27;19940;-96
2022/08/09 01:18:45;;;;;;;;;;;24.70;57.70;;;;;;5161126;27;19961;-96
2022/08/09 01:21:49;;;;;;;;;;;24.60;57.60;;;;;;5161315;27;20342;-96
2022/08/09 01:24:34;;;;;;;;;;;24.60;57.60;;;;;;5118528;28;20058;-96
2022/08/09 01:27:10;;;;;;;;;;;24.60;57.40;;;;;;5117093;28;19958;-96
2022/08/09 01:29:56;;;;;;;;;;;24.60;57.80;;;;;;5146342;27;19961;-96
2022/08/09 01:32:22;;;;;;;;;;;24.60;57.80;;;;;;5159357;27;19944;-96
2022/08/09 01:34:49;;;;;;;;;;;24.50;57.80;;;;;;5157775;27;19978;-96
2022/08/09 01:37:16;;;;;;;;;;;24.50;58.00;;;;;;5158943;27;19956;-96
2022/08/09 01:39:43;;;;;;;;;;;24.40;58.90;;;;;;5157718;27;19977;-96
2022/08/09 01:42:09;;;;;;;;;;;24.30;60.90;;;;;;5158419;27;20375;-96
2022/08/09 01:44:35;;;;;;;;;;;24.10;61.20;;;;;;5159451;27;19942;-96
2022/08/09 01:47:02;;;;;;;;;;;24.00;60.80;;;;;;5158386;27;19983;-96
2022/08/09 01:49:30;;;;;;;;;;;24.00;61.30;;;;;;5161116;27;19938;-96
2022/08/09 01:52:03;;;;;;;;;;;23.90;60.80;;;;;;5161269;27;19949;-96
2022/08/09 01:59:11;;;;;;;;;;;24.00;60.20;;;;;;5101227;27;20396;-96
2022/08/09 02:06:16;;;;;;;;;;;23.90;61.70;;;;;;5117541;27;19954;-96
2022/08/09 02:08:44;;;;;;;;;;;23.90;61.10;;;;;;5119452;28;19942;-96
2022/08/09 02:11:10;;;;;;;;;;;23.80;62.40;;;;;;5119438;28;19948;-96
2022/08/09 02:13:36;;;;;;;;;;;23.70;62.20;;;;;;5119613;28;19980;-96
2022/08/09 02:16:02;;;;;;;;;;;23.60;62.40;;;;;;5117956;28;20412;-96
2022/08/09 02:18:29;;;;;;;;;;;23.50;62.90;;;;;;5120067;28;19999;-96
2022/08/09 02:20:57;;;;;;;;;;;23.50;62.80;;;;;;5120651;28;19945;-96
2022/08/09 02:23:29;;;;;;;;;;;23.50;62.00;;;;;;5122146;28;19938;-96
2022/08/09 02:25:56;;;;;;;;;;;23.50;61.40;;;;;;5120228;28;20000;-96
2022/08/09 02:28:22;;;;;;;;;;;23.60;61.00;;;;;;5120184;28;19983;-96
2022/08/09 02:30:50;;;;;;;;;;;23.60;60.70;;;;;;5120290;28;19938;-96
2022/08/09 02:33:22;;;;;;;;;;;23.60;60.10;;;;;;5121211;28;19943;-96
2022/08/09 02:35:50;;;;;;;;;;;23.70;59.90;;;;;;5120288;28;19965;-96
2022/08/09 02:39:52;;;;;;;;;;;23.70;59.60;;;;;;5121605;27;20048;-96
2022/08/09 02:42:22;;;;;;;;;;;23.70;59.50;;;;;;5121720;28;19946;-96
2022/08/09 02:44:51;;;;;;;;;;;23.80;59.10;;;;;;5122572;28;19942;-96
2022/08/09 02:47:19;;;;;;;;;;;23.80;58.70;;;;;;5121965;28;19946;-96
2022/08/09 02:49:56;;;;;;;;;;;23.80;58.70;;;;;;5122832;28;19983;-96
2022/08/09 02:52:24;;;;;;;;;;;23.80;58.70;;;;;;5103896;28;19939;-96
2022/08/09 02:54:51;;;;;;;;;;;23.80;58.70;;;;;;5122515;28;19939;-96
2022/08/09 02:57:18;;;;;;;;;;;23.80;58.90;;;;;;5103969;28;19946;-96
2022/08/09 02:59:44;;;;;;;;;;;23.70;58.90;;;;;;5120606;28;19942;-96
2022/08/09 03:02:12;;;;;;;;;;;23.70;60.40;;;;;;5101987;28;20366;-96
2022/08/09 03:04:39;;;;;;;;;;;23.70;60.20;;;;;;5121933;28;19985;-96
2022/08/09 03:07:05;;;;;;;;;;;23.60;60.10;;;;;;5103414;28;19982;-96
2022/08/09 03:09:32;;;;;;;;;;;23.60;59.80;;;;;;5121566;28;19943;-96
2022/08/09 03:11:58;;;;;;;;;;;23.60;60.30;;;;;;5121086;28;19938;-96
2022/08/09 03:14:24;;;;;;;;;;;23.50;60.20;;;;;;5122248;28;19943;-96
2022/08/09 03:16:51;;;;;;;;;;;23.50;59.90;;;;;;5104006;28;19949;-96
2022/08/09 03:19:18;;;;;;;;;;;23.50;60.20;;;;;;5122664;28;19945;-96
2022/08/09 03:21:49;;;;;;;;;;;23.50;60.40;;;;;;5103823;28;19943;-96
2022/08/09 03:26:07;;;;;;;;;;;23.50;61.40;;;;;;5058419;27;2325104;-96
2022/08/09 03:28:33;;;;;;;;;;;23.30;62.10;;;;;;5140660;28;19953;-96
2022/08/09 03:32:04;;;;;;;;;;;23.30;62.20;;;;;;5117176;27;19968;-96
2022/08/09 03:34:29;;;;;;;;;;;23.20;62.60;;;;;;5116071;28;20034;-96
2022/08/09 03:36:55;;;;;;;;;;;23.20;63.20;;;;;;5117610;28;20391;-96
2022/08/09 03:39:23;;;;;;;;;;;23.10;64.60;;;;;;5114177;28;20323;-96
2022/08/09 03:41:50;;;;;;;;;;;23.00;64.60;;;;;;5116248;28;19948;-96
2022/08/09 03:44:15;;;;;;;;;;;23.00;64.80;;;;;;5113925;28;19949;-96
2022/08/09 03:46:41;;;;;;;;;;;22.90;65.10;;;;;;5115655;28;19943;-96
2022/08/09 03:49:07;;;;;;;;;;;22.80;65.70;;;;;;5113559;28;19940;-96
2022/08/09 03:51:33;;;;;;;;;;;22.80;64.90;;;;;;5114866;28;19976;-96
2022/08/09 03:53:59;;;;;;;;;;;22.80;65.00;;;;;;5114939;28;19940;-96
2022/08/09 03:56:25;;;;;;;;;;;22.80;64.70;;;;;;5115358;28;19940;-96
2022/08/09 03:58:50;;;;;;;;;;;22.80;64.80;;;;;;5114529;28;19942;-96
2022/08/09 04:01:16;;;;;;;;;;;22.80;64.90;;;;;;5115472;28;20036;-96
2022/08/09 04:03:42;;;;;;;;;;;22.80;64.80;;;;;;5115629;28;20031;-96
2022/08/09 04:06:08;;;;;;;;;;;22.80;65.00;;;;;;5114963;28;20028;-96
2022/08/09 04:23:33;;;;;;;;;;;22.80;65.20;;;;;;5178071;27;20426;-96
2022/08/09 04:25:59;;;;;;;;;;;22.90;64.50;;;;;;5178855;27;19980;-96
2022/08/09 04:28:25;;;;;;;;;;;22.90;64.70;;;;;;5178685;27;20354;-96
2022/08/09 04:30:50;;;;;;;;;;;22.80;65.30;;;;;;5179941;27;19963;-96
2022/08/09 04:33:16;;;;;;;;;;;22.80;65.60;;;;;;5161612;27;19948;-96
2022/08/09 04:35:41;;;;;;;;;;;22.80;65.80;;;;;;5176750;27;19957;-96
2022/08/09 04:38:07;;;;;;;;;;;22.80;65.80;;;;;;5160719;27;19984;-96
2022/08/09 04:40:48;;;;;;;;;;;22.80;65.70;;;;;;5159708;27;19937;-96
2022/08/09 04:43:17;;;;;;;;;;;22.80;65.60;;;;;;5160515;27;20478;-96
2022/08/09 04:45:43;;;;;;;;;;;22.80;65.50;;;;;;5160016;27;19995;-96
2022/08/09 04:48:09;;;;;;;;;;;22.80;65.40;;;;;;5160796;27;20000;-96
2022/08/09 04:50:34;;;;;;;;;;;22.80;66.00;;;;;;5160654;27;20420;-96
2022/08/09 04:53:00;;;;;;;;;;;22.90;65.40;;;;;;5161283;27;19940;-96
2022/08/09 04:55:26;;;;;;;;;;;22.90;65.80;;;;;;5161445;27;19965;-96
2022/08/09 04:57:52;;;;;;;;;;;22.90;66.00;;;;;;5142774;27;20396;-96
2022/08/09 05:00:17;;;;;;;;;;;22.90;65.20;;;;;;5161921;27;19948;-96
2022/08/09 05:02:44;;;;;;;;;;;23.00;65.10;;;;;;5161985;27;19982;-96
2022/08/09 05:21:10;;;;;;;;;;;23.00;64.80;;;;;;5122393;27;20010;-96
2022/08/09 05:23:36;;;;;;;;;;;23.80;61.80;;;;;;5124678;27;19952;-96
2022/08/09 05:26:02;;;;;;;;;;;23.80;61.60;;;;;;5123800;28;19994;-96
2022/08/09 05:28:28;;;;;;;;;;;23.80;61.80;;;;;;5123661;27;19953;-96
2022/08/09 05:30:56;;;;;;;;;;;23.80;62.10;;;;;;5125578;28;19967;-96
2022/08/09 05:33:24;;;;;;;;;;;23.80;62.40;;;;;;5127004;28;19940;-96
2022/08/09 05:35:58;;;;;;;;;;;23.80;62.50;;;;;;5118529;28;19961;-96
2022/08/09 05:38:24;;;;;;;;;;;23.70;62.10;;;;;;5103639;28;19942;-96
2022/08/09 05:40:50;;;;;;;;;;;23.80;62.70;;;;;;5098015;28;19975;-96
2022/08/09 05:43:16;;;;;;;;;;;23.80;63.30;;;;;;5100383;28;19948;-96
2022/08/09 05:45:42;;;;;;;;;;;23.80;62.90;;;;;;5103491;28;20013;-96
2022/08/09 05:48:08;;;;;;;;;;;23.90;62.80;;;;;;5100965;28;20448;-96
2022/08/09 05:50:34;;;;;;;;;;;23.90;62.40;;;;;;5105871;28;19942;-97
2022/08/09 05:53:00;;;;;;;;;;;24.00;61.60;;;;;;5107393;28;20008;-96
2022/08/09 05:55:26;;;;;;;;;;;24.00;61.60;;;;;;5099920;28;19939;-96
2022/08/09 05:57:51;;;;;;;;;;;24.10;61.20;;;;;;5097165;28;19947;-96
2022/08/09 06:00:17;;;;;;;;;;;24.10;61.80;;;;;;5098220;28;19949;-96
2022/08/09 06:02:44;;;;;;;;;;;24.20;61.60;;;;;;5100729;28;19933;-96
2022/08/09 06:11:42;;;;;;;;;;;24.30;61.60;;;;;;5126910;27;20008;-96
2022/08/09 06:15:39;;;;;;;;;;;24.70;59.10;;;;;;5104787;28;19999;-96
2022/08/09 06:18:04;;;;;;;;;;;24.80;57.70;;;;;;5100226;28;19990;-96
2022/08/09 06:21:50;;;;;;;;;;;24.90;57.80;;;;;;5147676;27;20005;-96
2022/08/09 06:24:16;;;;;;;;;;;24.90;56.90;;;;;;5149929;28;19940;-96
2022/08/09 06:26:42;;;;;;;;;;;24.90;57.80;;;;;;5149383;28;19934;-97
2022/08/09 06:29:08;;;;;;;;;;;24.80;56.80;;;;;;5132111;28;20468;-96
2022/08/09 06:33:15;;;;;;;;;;;24.80;56.50;;;;;;5080982;28;20382;-96
2022/08/09 06:37:25;;;;;;;;;;;24.90;57.10;;;;;;5164097;27;20032;-96
2022/08/09 06:39:51;;;;;;;;;;;25.00;56.90;;;;;;5163934;27;20331;-96
2022/08/09 06:42:18;;;;;;;;;;;25.10;55.80;;;;;;5165249;27;19949;-96
2022/08/09 06:44:44;;;;;;;;;;;25.10;54.90;;;;;;5160210;27;20475;-96
2022/08/09 06:47:10;;;;;;;;;;;25.20;54.50;;;;;;5162703;27;19942;-96
2022/08/09 06:49:35;;;;;;;;;;;25.20;55.10;;;;;;5162964;27;19938;-96
2022/08/09 06:52:01;;;;;;;;;;;25.20;54.70;;;;;;5160760;27;19943;-96
2022/08/09 06:54:27;;;;;;;;;;;25.30;54.80;;;;;;5163822;27;19939;-96
2022/08/09 06:56:53;;;;;;;;;;;25.30;54.20;;;;;;5164103;27;19960;-96
2022/08/09 06:59:19;;;;;;;;;;;25.40;54.60;;;;;;5167870;27;19979;-96
2022/08/09 07:02:13;;;;;;;;;;;25.50;54.60;;;;;;5051565;27;2591316;-96
2022/08/09 07:12:15;;;;;;;;;;;25.60;54.10;;;;;;5193754;27;20017;-97
2022/08/09 07:14:41;;;;;;;;;;;25.90;53.20;;;;;;5175696;27;19948;-96
2022/08/09 07:17:07;;;;;;;;;;;26.00;53.10;;;;;;5174192;27;19936;-96
2022/08/09 07:19:33;;;;;;;;;;;26.10;53.20;;;;;;5173950;27;19944;-96
2022/08/09 07:22:00;;;;;;;;;;;26.10;54.00;;;;;;5173672;27;19942;-96
2022/08/09 07:24:27;;;;;;;;;;;26.20;53.90;;;;;;5193892;27;19944;-96
2022/08/09 07:26:56;;;;;;;;;;;26.20;53.50;;;;;;5175947;27;19949;-96
2022/08/09 07:29:26;;;;;;;;;;;26.20;52.80;;;;;;5178341;27;19935;-96
2022/08/09 07:31:53;;;;;;;;;;;26.20;52.60;;;;;;5160059;27;19961;-96
2022/08/09 07:34:21;;;;;;;;;;;26.30;51.60;;;;;;5177107;27;19945;-96
2022/08/09 07:36:49;;;;;;;;;;;26.30;51.90;;;;;;5158815;27;20021;-96
2022/08/09 07:39:15;;;;;;;;;;;26.30;52.70;;;;;;5175867;27;20011;-96
2022/08/09 07:41:44;;;;;;;;;;;26.30;52.70;;;;;;5176689;27;19924;-96
2022/08/09 07:44:10;;;;;;;;;;;26.40;53.40;;;;;;5177295;27;19948;-96
2022/08/09 07:46:37;;;;;;;;;;;26.50;53.60;;;;;;5175096;27;19977;-96
2022/08/09 07:49:06;;;;;;;;;;;26.60;52.10;;;;;;5174594;27;19949;-96
2022/08/09 07:51:32;;;;;;;;;;;26.60;52.40;;;;;;5174128;27;19986;-96
2022/08/09 07:53:58;;;;;;;;;;;26.70;51.90;;;;;;5175224;27;19997;-96
2022/08/09 07:56:26;;;;;;;;;;;26.70;51.90;;;;;;5174761;27;19942;-96
2022/08/09 07:58:52;;;;;;;;;;;26.80;52.40;;;;;;5175809;27;19942;-96
2022/08/09 08:01:18;;;;;;;;;;;26.80;51.20;;;;;;5194327;27;19930;-96
2022/08/09 08:03:51;;;;;;;;;;;26.90;51.20;;;;;;5178288;27;20022;-96
2022/08/09 08:06:22;;;;;;;;;;;27.00;50.30;;;;;;5194820;27;19966;-96
2022/08/09 08:08:48;;;;;;;;;;;27.20;48.80;;;;;;5177807;27;19947;-96
2022/08/09 08:11:17;;;;;;;;;;;27.20;48.00;;;;;;5193350;27;19984;-96
2022/08/09 08:13:44;;;;;;;;;;;27.30;49.00;;;;;;5193640;27;19947;-96
2022/08/09 08:16:13;;;;;;;;;;;27.30;49.20;;;;;;5174783;27;19938;-96
2022/08/09 08:18:39;;;;;;;;;;;27.40;49.70;;;;;;5172251;27;19944;-96
2022/08/09 08:21:05;;;;;;;;;;;27.40;49.20;;;;;;5188809;27;19946;-96
2022/08/09 08:23:31;;;;;;;;;;;27.50;48.50;;;;;;5156443;27;19942;-96
2022/08/09 08:25:57;;;;;;;;;;;27.50;48.80;;;;;;5157015;27;19938;-96
2022/08/09 08:28:26;;;;;;;;;;;27.50;49.40;;;;;;5156594;27;19942;-96
2022/08/09 08:30:52;;;;;;;;;;;27.60;48.80;;;;;;5173482;27;19995;-96
2022/08/09 08:33:17;;;;;;;;;;;27.70;49.10;;;;;;5157098;27;19966;-96
2022/08/09 08:35:43;;;;;;;;;;;27.70;48.20;;;;;;5172278;27;19961;-96
2022/08/09 08:38:09;;;;;;;;;;;27.70;49.30;;;;;;5155423;27;19937;-96
2022/08/09 08:40:35;;;;;;;;;;;27.70;48.10;;;;;;5155570;27;20027;-96
2022/08/09 08:43:02;;;;;;;;;;;27.70;49.50;;;;;;5153832;27;19942;-96
2022/08/09 08:45:38;;;;;;;;;;;27.80;48.40;;;;;;5174040;27;19950;-96
2022/08/09 08:48:04;;;;;;;;;;;27.70;48.50;;;;;;5173902;27;19947;-96
2022/08/09 08:50:30;;;;;;;;;;;27.80;47.60;;;;;;5155512;27;19960;-96
2022/08/09 08:52:56;;;;;;;;;;;27.70;47.30;;;;;;5157954;27;19950;-96
2022/08/09 08:55:22;;;;;;;;;;;27.70;47.00;;;;;;5157510;27;19960;-96
2022/08/09 09:00:26;;;;;;;;;;;27.80;50.50;;;;;;5192604;22;19958;-96
2022/08/09 09:03:07;;;;;;;;;;;27.90;49.10;;;;;;5079608;28;19944;-96
2022/08/09 09:18:40;;;;;;;;;;;27.90;47.60;;;;;;6248730;22;883854;-96
2022/08/09 11:52:59;;;;;;;;;;;28.20;47.50;;;;;;5087008;27;2170558;-96
2022/08/09 11:55:43;;;;;;;;;;;33.20;35.30;;;;;;5185512;27;19944;-96
2022/08/09 11:58:14;;;;;;;;;;;33.20;35.50;;;;;;5185376;27;19945;-96
2022/08/09 12:00:47;;;;;;;;;;;33.10;36.10;;;;;;5183932;27;19970;-96
2022/08/09 12:03:19;;;;;;;;;;;33.00;37.50;;;;;;5169615;27;20052;-96
2022/08/09 12:05:46;;;;;;;;;;;33.20;35.30;;;;;;5173037;27;19959;-96
2022/08/09 12:08:13;;;;;;;;;;;33.60;36.80;;;;;;5174501;27;19937;-96
2022/08/09 12:25:11;;;;;;;;;;;33.70;34.70;;;;;;5061710;27;2102418;-96
2022/08/09 12:27:37;;;;;;;;;;;35.40;32.80;;;;;;5112856;28;20012;-95
2022/08/09 12:30:03;;;;;;;;;;;35.70;33.20;;;;;;5110421;28;20005;-96
2022/08/09 12:32:28;;;;;;;;;;;36.00;32.30;;;;;;5109493;28;19968;-96
2022/08/09 12:34:59;;;;;;;;;;;36.30;29.50;;;;;;5114551;28;19941;-96
2022/08/09 12:37:31;;;;;;;;;;;36.60;31.50;;;;;;5110891;28;20425;-95
2022/08/09 12:40:00;;;;;;;;;;;36.30;29.80;;;;;;5110331;28;20114;-96
2022/08/09 12:42:26;;;;;;;;;;;36.20;30.60;;;;;;5115951;28;19945;-96
2022/08/09 12:44:51;;;;;;;;;;;36.50;29.40;;;;;;5122923;28;19942;-96
2022/08/09 12:49:36;;;;;;;;;;;36.90;29.80;;;;;;5144668;27;20051;-96
2022/08/09 12:52:03;;;;;;;;;;;37.50;28.30;;;;;;5144900;27;19948;-96
2022/08/09 12:54:29;;;;;;;;;;;37.40;27.60;;;;;;5141030;28;19949;-96
2022/08/09 12:56:54;;;;;;;;;;;37.70;28.40;;;;;;5144511;28;20026;-96
2022/08/09 12:59:22;;;;;;;;;;;38.10;28.40;;;;;;5145340;28;19948;-96
2022/08/09 13:03:25;;;;;;;;;;;38.40;27.70;;;;;;5113622;27;20032;-96
2022/08/09 13:08:13;;;;;;;;;;;38.90;26.00;;;;;;5086567;27;19937;-96
2022/08/09 13:12:00;;;;;;;;;;;39.60;26.20;;;;;;5152130;27;19940;-96
2022/08/09 13:14:27;;;;;;;;;;;40.00;24.40;;;;;;5151467;27;19947;-96
2022/08/09 13:16:54;;;;;;;;;;;41.10;24.00;;;;;;5132519;27;19944;-96
2022/08/09 13:19:25;;;;;;;;;;;41.60;22.60;;;;;;5150820;27;19937;-96
2022/08/09 13:22:09;;;;;;;;;;;42.50;21.50;;;;;;5150455;27;19940;-96
2022/08/09 13:24:34;;;;;;;;;;;42.90;21.90;;;;;;5132165;27;20009;-96
2022/08/09 13:27:00;;;;;;;;;;;43.30;22.20;;;;;;5150872;27;19957;-96
2022/08/09 13:29:26;;;;;;;;;;;43.90;20.40;;;;;;5131965;27;19980;-96
2022/08/09 13:31:56;;;;;;;;;;;44.20;20.80;;;;;;5150202;27;20412;-96
2022/08/09 13:34:22;;;;;;;;;;;44.40;20.30;;;;;;5150822;27;20041;-96
2022/08/09 13:36:48;;;;;;;;;;;44.10;20.50;;;;;;5132079;27;20090;-96
2022/08/09 13:39:13;;;;;;;;;;;44.40;20.10;;;;;;5152872;27;20489;-96
2022/08/09 13:41:39;;;;;;;;;;;44.00;19.70;;;;;;5150173;27;20035;-96
2022/08/09 13:44:04;;;;;;;;;;;43.10;21.20;;;;;;5150452;27;20029;-96
2022/08/09 13:48:22;;;;;;;;;;;43.30;20.40;;;;;;5097275;27;19956;-96
2022/08/09 13:50:48;;;;;;;;;;;42.90;21.10;;;;;;5103139;28;19984;-96
2022/08/09 13:53:15;;;;;;;;;;;43.10;20.10;;;;;;5102892;28;19946;-96
2022/08/09 13:55:41;;;;;;;;;;;43.50;21.30;;;;;;5106268;28;19955;-96
2022/08/09 13:58:07;;;;;;;;;;;43.10;21.60;;;;;;5105703;28;19973;-96
2022/08/09 14:00:35;;;;;;;;;;;43.40;21.00;;;;;;5103231;28;19944;-96
2022/08/09 14:03:01;;;;;;;;;;;43.20;22.10;;;;;;5103543;28;20003;-96
2022/08/09 14:05:26;;;;;;;;;;;43.00;21.00;;;;;;5101232;28;20313;-96
2022/08/09 14:07:52;;;;;;;;;;;42.00;21.70;;;;;;5097673;28;19950;-96
2022/08/09 14:10:18;;;;;;;;;;;42.00;22.20;;;;;;5099724;28;19940;-96
2022/08/09 14:12:44;;;;;;;;;;;42.30;21.40;;;;;;5105154;28;19940;-96
2022/08/09 14:15:10;;;;;;;;;;;43.60;20.80;;;;;;5102706;28;20311;-96
2022/08/09 14:17:35;;;;;;;;;;;43.20;20.80;;;;;;5104091;28;19936;-96
2022/08/09 14:20:02;;;;;;;;;;;42.50;21.10;;;;;;5105316;28;20017;-96
2022/08/09 14:22:28;;;;;;;;;;;42.90;20.80;;;;;;5106374;28;19962;-96
2022/08/09 14:24:53;;;;;;;;;;;44.60;19.60;;;;;;5107902;28;19941;-96
2022/08/09 14:27:20;;;;;;;;;;;45.30;19.20;;;;;;5108108;28;19964;-96
2022/08/09 14:29:46;;;;;;;;;;;46.00;19.70;;;;;;5107849;28;19939;-96
2022/08/09 14:32:11;;;;;;;;;;;46.10;18.50;;;;;;5110334;22;20080;-97
2022/08/09 14:34:37;;;;;;;;;;;47.20;17.10;;;;;;5077704;28;20411;-96
2022/08/09 14:37:04;;;;;;;;;;;46.60;18.30;;;;;;5076361;28;19978;-96
2022/08/09 14:39:30;;;;;;;;;;;46.40;18.10;;;;;;5074585;28;20002;-96
2022/08/09 14:41:56;;;;;;;;;;;46.10;18.40;;;;;;5075078;28;20377;-96
2022/08/09 14:44:21;;;;;;;;;;;45.90;17.80;;;;;;5080981;28;19983;-96
2022/08/09 14:47:10;;;;;;;;;;;45.90;18.20;;;;;;5082813;28;20042;-96
2022/08/09 14:50:05;;;;;;;;;;;45.50;18.80;;;;;;5120471;27;19946;-96
2022/08/09 14:52:31;;;;;;;;;;;44.60;19.10;;;;;;5117688;28;20043;-96
2022/08/09 14:54:57;;;;;;;;;;;44.40;19.50;;;;;;5119388;28;19935;-96
2022/08/09 14:57:23;;;;;;;;;;;44.20;19.70;;;;;;5122444;28;19955;-96
2022/08/09 14:59:49;;;;;;;;;;;44.00;20.50;;;;;;5121042;28;19984;-96
2022/08/09 15:02:16;;;;;;;;;;;43.40;20.50;;;;;;5122380;28;19937;-96
2022/08/09 15:05:52;;;;;;;;;;;42.70;20.90;;;;;;5187217;27;20031;-96
2022/08/09 15:08:18;;;;;;;;;;;42.60;21.50;;;;;;5186807;27;19954;-96
2022/08/09 15:10:47;;;;;;;;;;;43.20;21.30;;;;;;5177860;27;19940;-96
2022/08/09 15:13:18;;;;;;;;;;;43.50;20.60;;;;;;5178767;27;19993;-96
2022/08/09 15:15:48;;;;;;;;;;;43.70;20.70;;;;;;5177338;27;20384;-96
2022/08/09 15:18:17;;;;;;;;;;;44.10;20.80;;;;;;5206623;22;19980;-96
2022/08/09 15:20:43;;;;;;;;;;;44.60;20.60;;;;;;5109161;28;19924;-96
2022/08/09 15:23:10;;;;;;;;;;;45.00;19.90;;;;;;5107918;28;19938;-96
2022/08/09 15:25:36;;;;;;;;;;;45.20;19.40;;;;;;5105450;28;19959;-96
2022/08/09 15:28:02;;;;;;;;;;;44.10;20.20;;;;;;5107925;28;20337;-96
2022/08/09 15:30:28;;;;;;;;;;;43.70;20.30;;;;;;5109095;28;19942;-96
2022/08/09 15:32:54;;;;;;;;;;;43.70;20.80;;;;;;5104605;28;19986;-96
2022/08/09 15:35:22;;;;;;;;;;;43.50;21.10;;;;;;5104549;28;19962;-96
2022/08/09 15:37:49;;;;;;;;;;;42.60;21.60;;;;;;5105047;28;19941;-96
2022/08/09 15:40:58;;;;;;;;;;;42.00;22.90;;;;;;5096143;27;19956;-96
2022/08/09 15:43:26;;;;;;;;;;;40.70;23.90;;;;;;5097248;28;19969;-96
2022/08/09 15:59:47;;;;;;;;;;;39.20;25.50;;;;;;5110485;27;2146518;-96
2022/08/09 16:02:13;;;;;;;;;;;39.50;24.90;;;;;;5193058;27;19941;-96
2022/08/09 16:04:39;;;;;;;;;;;39.40;24.80;;;;;;5172764;27;19945;-96
2022/08/09 16:07:05;;;;;;;;;;;39.60;25.50;;;;;;5171427;27;20395;-96
2022/08/09 16:09:31;;;;;;;;;;;40.20;24.10;;;;;;5169882;27;19977;-96
2022/08/09 16:11:56;;;;;;;;;;;40.40;24.20;;;;;;5185723;27;19933;-96
2022/08/09 16:14:22;;;;;;;;;;;40.10;24.10;;;;;;5184346;27;19939;-96
2022/08/09 16:16:48;;;;;;;;;;;39.10;25.70;;;;;;5164153;27;19947;-96
2022/08/09 16:19:13;;;;;;;;;;;38.20;26.20;;;;;;5167103;27;19970;-96
2022/08/09 16:21:40;;;;;;;;;;;37.80;27.20;;;;;;5187322;27;20017;-96
2022/08/09 16:24:06;;;;;;;;;;;37.60;26.70;;;;;;5169758;27;19946;-96
2022/08/09 16:26:33;;;;;;;;;;;37.50;26.90;;;;;;5170037;27;19974;-96
2022/08/09 16:28:59;;;;;;;;;;;37.40;27.80;;;;;;5168115;27;19985;-96
2022/08/09 16:31:25;;;;;;;;;;;37.10;28.50;;;;;;5169790;27;19957;-96
2022/08/09 16:33:51;;;;;;;;;;;36.50;29.10;;;;;;5167423;27;20473;-96
2022/08/09 16:36:17;;;;;;;;;;;36.20;29.00;;;;;;5173213;27;19956;-96
2022/08/09 16:38:43;;;;;;;;;;;35.80;29.60;;;;;;5142961;27;20048;-96
2022/08/09 16:41:09;;;;;;;;;;;35.70;29.80;;;;;;5143033;27;19936;-96
2022/08/09 16:43:35;;;;;;;;;;;35.30;31.00;;;;;;5161381;27;19946;-96
2022/08/09 16:46:00;;;;;;;;;;;35.30;30.00;;;;;;5140621;27;19964;-96
2022/08/09 16:48:26;;;;;;;;;;;35.10;30.90;;;;;;5160101;27;19945;-96
2022/08/09 16:50:52;;;;;;;;;;;34.90;31.90;;;;;;5158752;27;19943;-96
2022/08/09 16:53:17;;;;;;;;;;;34.90;31.50;;;;;;5162522;27;19939;-96
2022/08/09 16:55:43;;;;;;;;;;;34.70;31.20;;;;;;5145232;27;19944;-96
2022/08/09 16:58:10;;;;;;;;;;;34.70;32.70;;;;;;5163377;27;19998;-96
2022/08/09 17:00:36;;;;;;;;;;;34.80;31.90;;;;;;5146286;27;19975;-96
2022/08/09 17:03:02;;;;;;;;;;;34.80;31.70;;;;;;5162804;27;19944;-96
2022/08/09 17:05:28;;;;;;;;;;;34.60;31.80;;;;;;5160200;27;20313;-96
2022/08/09 17:07:53;;;;;;;;;;;34.20;32.80;;;;;;5156468;27;19938;-96
2022/08/09 17:10:20;;;;;;;;;;;34.20;33.10;;;;;;5128779;27;20014;-96
2022/08/09 17:12:46;;;;;;;;;;;34.10;33.90;;;;;;5143302;27;19949;-96
2022/08/09 17:15:12;;;;;;;;;;;34.10;33.20;;;;;;5143811;27;20406;-96
2022/08/09 17:17:39;;;;;;;;;;;34.00;33.00;;;;;;5144551;27;20399;-96
2022/08/09 17:20:05;;;;;;;;;;;33.70;34.00;;;;;;5143564;27;20042;-96
2022/08/09 17:22:31;;;;;;;;;;;33.70;34.30;;;;;;5124962;27;19938;-96
2022/08/09 17:24:58;;;;;;;;;;;33.70;34.90;;;;;;5141755;27;20391;-96
2022/08/09 17:27:23;;;;;;;;;;;33.50;35.10;;;;;;5139857;27;19987;-96
2022/08/09 17:29:49;;;;;;;;;;;33.40;35.20;;;;;;5121970;27;19948;-96
2022/08/09 17:32:14;;;;;;;;;;;33.10;36.00;;;;;;5139272;27;20331;-96
2022/08/09 17:34:40;;;;;;;;;;;32.90;36.80;;;;;;5138926;27;19931;-96
2022/08/09 17:37:05;;;;;;;;;;;32.50;35.80;;;;;;5120239;27;19959;-96
2022/08/09 17:39:31;;;;;;;;;;;32.30;37.40;;;;;;5139376;27;19964;-96
2022/08/09 17:41:57;;;;;;;;;;;32.10;37.10;;;;;;5138742;27;19935;-96
2022/08/09 17:44:22;;;;;;;;;;;31.90;37.30;;;;;;5140683;27;20305;-96
2022/08/09 17:46:48;;;;;;;;;;;31.70;37.30;;;;;;5138982;27;19959;-96
2022/08/09 17:49:14;;;;;;;;;;;31.70;37.30;;;;;;5137513;27;19938;-96
2022/08/09 17:51:39;;;;;;;;;;;31.50;39.10;;;;;;5137380;27;19939;-96
2022/08/09 17:54:05;;;;;;;;;;;31.30;40.60;;;;;;5137393;27;19979;-96
2022/08/09 17:56:30;;;;;;;;;;;31.10;41.30;;;;;;5136918;27;20394;-96
2022/08/09 17:58:57;;;;;;;;;;;30.90;41.00;;;;;;5136995;27;20036;-96
2022/08/09 18:01:22;;;;;;;;;;;30.70;42.60;;;;;;5137445;27;20439;-96
2022/08/09 18:03:48;;;;;;;;;;;30.50;41.90;;;;;;5136842;27;19945;-96
2022/08/09 18:06:13;;;;;;;;;;;30.40;40.00;;;;;;5118398;27;20312;-96
2022/08/09 18:08:39;;;;;;;;;;;30.30;42.30;;;;;;5137039;27;19986;-96
2022/08/09 18:11:05;;;;;;;;;;;30.30;45.40;;;;;;5136766;27;20333;-96
2022/08/09 18:13:30;;;;;;;;;;;30.30;48.10;;;;;;5118262;27;20311;-96
2022/08/09 18:15:56;;;;;;;;;;;30.10;51.20;;;;;;5136909;27;20409;-96
2022/08/09 18:18:22;;;;;;;;;;;29.70;51.70;;;;;;5136427;27;20394;-96
2022/08/09 18:20:47;;;;;;;;;;;29.40;50.00;;;;;;5136410;27;19945;-96
2022/08/09 18:23:13;;;;;;;;;;;29.30;50.90;;;;;;5136243;27;19942;-96
2022/08/09 18:25:38;;;;;;;;;;;29.20;52.00;;;;;;5136698;27;19991;-96
2022/08/09 18:28:04;;;;;;;;;;;29.10;51.30;;;;;;5117989;27;19943;-96
2022/08/09 18:30:29;;;;;;;;;;;29.00;52.50;;;;;;5117882;27;19940;-96
2022/08/09 18:32:56;;;;;;;;;;;28.90;54.40;;;;;;5136888;27;19940;-96
2022/08/09 18:35:22;;;;;;;;;;;28.80;49.70;;;;;;5136431;27;20407;-96
2022/08/09 18:37:48;;;;;;;;;;;28.70;52.10;;;;;;5136398;27;20452;-96
2022/08/09 18:40:14;;;;;;;;;;;28.60;53.20;;;;;;5136854;27;19991;-96
2022/08/09 18:42:39;;;;;;;;;;;28.40;52.20;;;;;;5136686;27;19940;-96
2022/08/09 18:45:05;;;;;;;;;;;28.30;48.60;;;;;;5136086;27;19944;-95
2022/08/09 18:47:31;;;;;;;;;;;28.30;50.30;;;;;;5136002;27;19936;-96
2022/08/09 18:49:57;;;;;;;;;;;28.20;49.80;;;;;;5136247;27;19938;-96
2022/08/09 18:52:22;;;;;;;;;;;28.20;50.20;;;;;;5117504;27;20433;-96
2022/08/09 18:54:48;;;;;;;;;;;28.20;51.10;;;;;;5136160;27;19952;-96
2022/08/09 18:57:14;;;;;;;;;;;28.10;51.90;;;;;;5135751;27;20463;-96
2022/08/09 18:59:39;;;;;;;;;;;27.90;54.20;;;;;;5135645;27;19961;-96